This is the latest recevied weather packets stored in our database for station/object OE-11349. If no packets are shown the sender has not sent any weather packets the latest 10 day(s).
| Time | Temp. | Humidity | Pressure | Rain* | Wind** | Luminosity | Snow |
|---|---|---|---|---|---|---|---|
| 1787892909 | 15.56° C | 82% | 853.9 hPa | - | - | 14 W/m² | - |
| 1787892081 | 15° C | 83% | 853.9 hPa | - | - | 7 W/m² | - |
| 1787891708 | 15.56° C | 83% | 853.8 hPa | - | - | 0 W/m² | - |
| 1787891109 | 15.56° C | 82% | 853.8 hPa | - | - | 0 W/m² | - |
| 1787890281 | 15.56° C | 83% | 853.9 hPa | - | - | 0 W/m² | - |
| 1787889908 | 15° C | 85% | 854.1 hPa | - | - | 0 W/m² | - |
| 1787889309 | 15° C | 85% | 854.2 hPa | - | - | 0 W/m² | - |
| 1787888708 | 15.56° C | 85% | 854.2 hPa | - | - | 0 W/m² | - |
| 1787888108 | 15.56° C | 84% | 854.1 hPa | - | - | 0 W/m² | - |
| 1787887508 | 15.56° C | 83% | 854 hPa | - | - | 0 W/m² | - |
| 1787886681 | 15.56° C | 83% | 854.1 hPa | - | - | 0 W/m² | - |
| 1787885709 | 15.56° C | 84% | 854.3 hPa | - | - | 0 W/m² | - |
| 1787884882 | 15.56° C | 85% | 854.3 hPa | - | - | 0 W/m² | - |
| 1787884509 | 15.56° C | 86% | 854.3 hPa | - | - | 0 W/m² | - |
| 1787883909 | 15.56° C | 85% | 854.1 hPa | - | - | 0 W/m² | - |
| 1787883082 | 15° C | 89% | 854.6 hPa | - | - | 0 W/m² | - |
| 1787882709 | 15.56° C | 87% | 854.3 hPa | - | - | 0 W/m² | - |
| 1787882107 | 15.56° C | 87% | 854.3 hPa | - | - | 0 W/m² | - |
| 1787881282 | 15.56° C | 86% | 854.3 hPa | - | - | 0 W/m² | - |
| 1787880909 | 15.56° C | 87% | 854.3 hPa | - | - | 0 W/m² | - |
| 1787880309 | 15.56° C | 88% | 854.4 hPa | - | - | 0 W/m² | - |
| 1787879481 | 15.56° C | 88% | 854.4 hPa | - | - | 0 W/m² | - |
| 1787879108 | 15.56° C | 89% | 854.5 hPa | - | - | 0 W/m² | - |
| 1787878509 | 15.56° C | 89% | 854.6 hPa | - | - | 0 W/m² | - |
| 1787877681 | 15.56° C | 90% | 854.6 hPa | - | - | 0 W/m² | - |
* Rain since midnight (hover to see other rain measurements)
** Current wind speed in m/s (hover to see current wind gust speed)